• Join FlightAware (Why Join?)
  • Login
  • US Flag 
04:26AM EST


 

Airport Tracker/Info


-or-


 

Live Flight TrackerFlight Track Log ✈ N867CH ✈ 08-Nov-2013 ✈ KFTY - 71J

Flight Track Log - Related Links

Times and Time Zones

All times are in EST time to prevent confusion due to time zone crossing. See the N867CH flight status page for this flight to view local times or setup timezone preferences in your user account.

Time Position Orientation Groundspeed Altitude Reporting Facility
EST Latitude Longitude Course Direction KTS MPH feet Rate Location/Type
04:20PM 33.1793 -84.8082 202° Southwest  Level Estimated
04:21PM 33.1393 -84.8272 202° Southwest  Level Estimated
04:22PM 33.0993 -84.8462 202° Southwest  Level Estimated
04:23PM 33.0592 -84.8651 202° Southwest  Level Estimated
04:24PM 33.0192 -84.8841 202° Southwest  Level Estimated
04:25PM 32.9792 -84.9030 202° Southwest  Level Estimated
04:26PM 32.9392 -84.9219 202° Southwest  Level Estimated
04:27PM 32.8991 -84.9408 202° Southwest  Level Estimated
04:28PM 32.8591 -84.9596 202° Southwest  Level Estimated
04:29PM 32.8191 -84.9785 202° Southwest  Level Estimated
04:30PM 32.7790 -84.9973 202° Southwest  Level Estimated
04:31PM 32.7390 -85.0161 202° Southwest  Level Estimated
04:32PM 32.6990 -85.0349 202° Southwest  Level Estimated
04:33PM 32.6589 -85.0537 202° Southwest  Level Estimated
04:34PM 32.6189 -85.0724 202° Southwest  Level Estimated
04:35PM 32.5788 -85.0912 202° Southwest  Level Estimated
04:36PM 32.5387 -85.1099 202° Southwest  Level Estimated
04:37PM 32.4987 -85.1286 202° Southwest  Level Estimated
04:38PM 32.4586 -85.1473 201° Southwest  Level Estimated
04:39PM 32.4186 -85.1660 201° Southwest  Level Estimated
04:40PM 32.3785 -85.1847 201° Southwest  Level Estimated
04:41PM 32.3384 -85.2033 201° Southwest  Level Estimated
04:42PM 32.2984 -85.2220 201° Southwest  Level Estimated
04:43PM 32.2583 -85.2406 201° Southwest  Level Estimated
04:44PM 32.2182 -85.2592 201° Southwest  Level Estimated
04:45PM 32.1781 -85.2777 201° Southwest  Level Estimated
04:46PM 32.1380 -85.2963 201° Southwest  Level Estimated
04:47PM 32.0979 -85.3149 201° Southwest  Level Estimated
04:48PM 32.0579 -85.3334 201° Southwest  Level Estimated
04:49PM 32.0178 -85.3519 201° Southwest  Level Estimated
04:50PM 31.9777 -85.3704 201° Southwest  Level Estimated
04:51PM 31.9376 -85.3889 201° Southwest  Level Estimated
04:52PM 31.8975 -85.4073 201° Southwest  Level Estimated
04:53PM 31.8574 -85.4258 201° Southwest  Level Estimated
04:54PM 31.8173 -85.4442 201° Southwest  Level Estimated
04:55PM 31.7772 -85.4626 201° Southwest  Level Estimated
04:56PM 31.7371 -85.4810 201° Southwest  Level Estimated
04:57PM 31.6970 -85.4994 201° Southwest  Level Estimated
04:58PM 31.6568 -85.5178 201° Southwest  Level Estimated
04:59PM 31.6167 -85.5362 201° Southwest  Level Estimated
05:00PM 31.5766 -85.5545 201° Southwest  Level Estimated
05:01PM 31.5365 -85.5728 201° Southwest  Level Estimated
05:02PM 31.4963 -85.5911 201° Southwest  Level Estimated